createdAt,value
2024-02-13T00:02:46.562Z,8.90
2024-02-13T00:07:48.841Z,8.72
2024-02-13T00:12:52.290Z,8.75
2024-02-13T00:17:54.177Z,8.54
2024-02-13T00:22:56.681Z,8.78
2024-02-13T00:27:58.336Z,8.86
2024-02-13T00:33:00.047Z,8.72
2024-02-13T00:38:01.714Z,8.78
2024-02-13T00:43:03.395Z,8.53
2024-02-13T00:48:07.062Z,8.41
2024-02-13T00:53:11.634Z,8.46
2024-02-13T00:58:13.318Z,8.28
2024-02-13T01:03:15.039Z,8.21
2024-02-13T01:08:24.468Z,8.41
2024-02-13T01:13:27.432Z,8.13
2024-02-13T01:18:30.420Z,8.37
2024-02-13T01:23:32.119Z,8.18
2024-02-13T01:28:37.122Z,8.04
2024-02-13T01:33:38.863Z,7.99
2024-02-13T01:38:40.586Z,7.96
2024-02-13T01:43:42.279Z,8.01
2024-02-13T01:48:44.054Z,7.92
2024-02-13T01:53:46.297Z,7.92
2024-02-13T01:58:47.990Z,7.84
2024-02-13T02:03:51.397Z,7.70
2024-02-13T02:08:54.245Z,7.67
2024-02-13T02:13:56.974Z,7.72
2024-02-13T02:18:58.838Z,7.58
2024-02-13T02:24:01.274Z,7.48
2024-02-13T02:29:03.060Z,7.50
2024-02-13T02:34:04.739Z,7.57
2024-02-13T02:39:06.431Z,7.57
2024-02-13T02:44:09.860Z,7.51
2024-02-13T02:49:11.891Z,7.69
2024-02-13T02:54:14.749Z,7.74
2024-02-13T02:59:17.475Z,7.59
2024-02-13T03:04:19.363Z,7.83
2024-02-13T03:09:21.097Z,7.82
2024-02-13T03:14:22.794Z,7.83
2024-02-13T03:19:24.444Z,7.87
2024-02-13T03:24:26.057Z,7.88
2024-02-13T03:29:28.255Z,7.91
2024-02-13T03:34:29.935Z,8.03
2024-02-13T03:39:31.591Z,8.23
2024-02-13T03:44:33.549Z,8.24
2024-02-13T03:49:35.325Z,8.28
2024-02-13T03:54:37.178Z,8.20
2024-02-13T03:59:39.806Z,8.23
2024-02-13T04:04:41.450Z,8.34
2024-02-13T04:09:43.238Z,8.10
2024-02-13T04:14:45.031Z,8.12
2024-02-13T04:19:47.066Z,8.15
2024-02-13T04:24:48.760Z,7.98
2024-02-13T04:29:50.622Z,8.26
2024-02-13T04:34:52.436Z,8.15
2024-02-13T04:39:54.106Z,8.17
2024-02-13T04:44:57.653Z,8.13
2024-02-13T04:50:00.499Z,7.96
2024-02-13T04:55:02.223Z,7.94
2024-02-13T05:00:29.417Z,8.04
2024-02-13T05:05:50.120Z,8.01
2024-02-13T05:10:51.894Z,7.83
2024-02-13T05:15:53.527Z,7.85
2024-02-13T05:20:55.358Z,7.82
2024-02-13T05:25:58.176Z,7.71
2024-02-13T05:30:59.936Z,7.65
2024-02-13T05:36:03.234Z,7.85
2024-02-13T05:41:05.995Z,7.79
2024-02-13T05:46:07.616Z,7.77
2024-02-13T05:51:12.777Z,7.63
2024-02-13T05:56:23.441Z,7.58
2024-02-13T06:01:30.452Z,7.60
2024-02-13T06:06:32.375Z,7.70
2024-02-13T06:11:37.540Z,7.85
2024-02-13T06:16:39.242Z,7.96
2024-02-13T06:21:41.557Z,7.89
2024-02-13T06:26:44.231Z,7.90
2024-02-13T06:31:45.873Z,7.93
2024-02-13T06:36:47.724Z,7.96
2024-02-13T06:41:49.560Z,7.87
2024-02-13T06:46:51.351Z,7.86
2024-02-13T06:51:52.986Z,7.92
2024-02-13T06:56:54.698Z,7.87
2024-02-13T07:01:56.535Z,8.17
2024-02-13T07:07:08.940Z,7.89
2024-02-13T07:12:21.253Z,8.00
2024-02-13T07:17:23.789Z,7.98
2024-02-13T07:22:25.676Z,7.87
2024-02-13T07:27:27.454Z,7.79
2024-02-13T07:32:29.181Z,7.92
2024-02-13T07:37:33.963Z,7.75
2024-02-13T07:42:35.609Z,7.72
2024-02-13T07:47:38.152Z,7.65
2024-02-13T07:52:40.571Z,7.71
2024-02-13T07:57:42.790Z,7.86
2024-02-13T08:02:45.109Z,8.05
2024-02-13T08:07:46.801Z,8.11
2024-02-13T08:12:48.423Z,8.34
2024-02-13T08:17:50.399Z,8.09
2024-02-13T08:22:52.450Z,8.22
2024-02-13T08:27:54.117Z,8.24
2024-02-13T08:32:56.009Z,8.29
2024-02-13T08:37:58.442Z,8.24
2024-02-13T08:43:00.189Z,8.51
2024-02-13T08:48:01.957Z,8.49
2024-02-13T08:53:03.921Z,8.35
2024-02-13T08:58:05.534Z,8.50
2024-02-13T09:03:07.178Z,8.54
2024-02-13T09:08:08.779Z,8.53
2024-02-13T09:13:10.565Z,8.36
2024-02-13T09:18:12.391Z,8.39
2024-02-13T09:23:15.665Z,8.49
2024-02-13T09:28:18.053Z,8.52
2024-02-13T09:33:22.440Z,8.67
2024-02-13T09:38:24.435Z,8.71
2024-02-13T09:43:26.140Z,8.77
2024-02-13T09:48:28.353Z,8.82
2024-02-13T09:53:30.487Z,8.89
2024-02-13T09:58:33.457Z,8.72
2024-02-13T10:03:38.090Z,8.66
2024-02-13T10:08:41.184Z,8.89
2024-02-13T10:13:47.158Z,8.85
2024-02-13T10:18:58.961Z,9.08
2024-02-13T10:24:10.183Z,9.09
2024-02-13T10:29:13.504Z,8.99
2024-02-13T10:34:15.295Z,8.84
2024-02-13T10:39:20.563Z,9.13
2024-02-13T10:44:24.388Z,9.16
2024-02-13T10:49:40.794Z,9.10
2024-02-13T10:54:48.175Z,9.13
2024-02-13T10:59:50.409Z,9.19
2024-02-13T11:04:52.731Z,9.17
2024-02-13T11:09:54.967Z,9.20
2024-02-13T11:15:16.653Z,9.20
2024-02-13T11:20:23.330Z,9.22
2024-02-13T11:25:28.545Z,9.31
2024-02-13T11:30:30.444Z,9.13
2024-02-13T11:35:43.076Z,9.30
2024-02-13T11:40:45.419Z,9.19
2024-02-13T11:45:47.485Z,9.31
2024-02-13T11:50:49.277Z,9.28
2024-02-13T11:55:56.070Z,9.11
2024-02-13T12:01:07.268Z,9.30
2024-02-13T12:06:10.737Z,9.32
2024-02-13T12:11:13.044Z,9.39
2024-02-13T12:16:15.699Z,9.52
2024-02-13T12:21:17.655Z,9.33
2024-02-13T12:26:19.344Z,9.55
2024-02-13T12:31:23.020Z,9.56
2024-02-13T12:36:25.594Z,9.57
2024-02-13T12:41:27.305Z,9.51
2024-02-13T12:46:35.945Z,9.56
2024-02-13T12:51:40.467Z,9.52
2024-02-13T12:56:42.393Z,9.59
2024-02-13T13:01:47.814Z,9.46
2024-02-13T13:06:51.934Z,9.58
2024-02-13T13:11:53.794Z,9.59
2024-02-13T13:16:56.595Z,9.71
2024-02-13T13:21:59.190Z,9.66
2024-02-13T13:27:02.002Z,9.66
2024-02-13T13:32:06.585Z,9.52
2024-02-13T13:37:08.650Z,9.54
2024-02-13T13:42:10.892Z,9.58
2024-02-13T13:47:12.842Z,9.59
2024-02-13T13:52:14.497Z,9.57
2024-02-13T13:57:16.470Z,9.65
2024-02-13T14:02:18.113Z,9.59
2024-02-13T14:07:21.047Z,9.85
2024-02-13T14:12:23.000Z,9.69
2024-02-13T14:17:24.869Z,9.68
2024-02-13T14:22:28.035Z,9.81
2024-02-13T14:27:29.764Z,9.84
2024-02-13T14:32:31.500Z,9.73
2024-02-13T14:37:33.161Z,9.72
2024-02-13T14:42:34.916Z,9.66
2024-02-13T14:47:40.174Z,9.58
2024-02-13T14:52:42.920Z,9.62
2024-02-13T14:57:52.315Z,9.54
2024-02-13T15:03:02.344Z,9.62
2024-02-13T15:08:04.697Z,9.48
2024-02-13T15:13:07.954Z,9.52
2024-02-13T15:18:09.685Z,9.40
2024-02-13T15:23:13.827Z,9.31
2024-02-13T15:28:16.943Z,9.32
2024-02-13T15:33:21.881Z,9.21
2024-02-13T15:38:44.252Z,9.12
2024-02-13T15:44:04.711Z,9.13
2024-02-13T15:49:06.564Z,8.98
2024-02-13T15:54:09.954Z,8.82
2024-02-13T15:59:11.766Z,8.80
2024-02-13T16:04:13.611Z,8.90
2024-02-13T16:09:15.456Z,8.88
2024-02-13T16:14:18.502Z,8.78
2024-02-13T16:19:20.290Z,8.68
2024-02-13T16:24:22.052Z,8.51
2024-02-13T16:29:24.594Z,8.54
2024-02-13T16:34:26.763Z,8.64
2024-02-13T16:39:28.458Z,8.67
2024-02-13T16:44:30.153Z,8.64
2024-02-13T16:49:31.907Z,8.57
2024-02-13T16:54:33.811Z,8.46
2024-02-13T16:59:35.524Z,8.34
2024-02-13T17:04:37.178Z,8.44
2024-02-13T17:09:38.843Z,8.43
2024-02-13T17:14:41.723Z,8.20
2024-02-13T17:19:43.867Z,8.35
2024-02-13T17:24:47.597Z,8.38
2024-02-13T17:29:49.273Z,8.18
2024-02-13T17:34:51.078Z,8.09
2024-02-13T17:39:52.829Z,8.30
2024-02-13T17:44:54.487Z,8.12
2024-02-13T17:49:56.182Z,7.98
2024-02-13T17:54:57.800Z,8.05
2024-02-13T17:59:59.480Z,8.04
2024-02-13T18:05:01.338Z,8.00
2024-02-13T18:10:04.152Z,8.03
2024-02-13T18:15:07.250Z,7.87
2024-02-13T18:20:15.528Z,7.86
2024-02-13T18:25:17.936Z,7.67
2024-02-13T18:30:19.635Z,7.62
2024-02-13T18:35:21.468Z,7.58
2024-02-13T18:40:23.712Z,7.47
2024-02-13T18:45:25.483Z,7.39
2024-02-13T18:50:28.765Z,7.29
2024-02-13T18:55:30.429Z,7.34
2024-02-13T19:00:32.137Z,7.14
2024-02-13T19:05:34.011Z,7.03
2024-02-13T19:10:37.985Z,7.00
2024-02-13T19:15:40.060Z,7.20
2024-02-13T19:20:41.783Z,7.03
2024-02-13T19:25:43.607Z,7.03
2024-02-13T19:30:47.858Z,6.72
2024-02-13T19:35:52.378Z,6.89
2024-02-13T19:40:54.029Z,6.62
2024-02-13T19:45:56.818Z,6.93
2024-02-13T19:50:58.570Z,6.80
2024-02-13T19:56:00.388Z,6.75
2024-02-13T20:01:02.104Z,6.73
2024-02-13T20:06:04.008Z,6.62
2024-02-13T20:11:05.774Z,6.59
2024-02-13T20:16:07.700Z,6.69
2024-02-13T20:21:09.365Z,6.39
2024-02-13T20:26:11.170Z,6.33
2024-02-13T20:31:12.994Z,5.86
2024-02-13T20:36:14.661Z,6.20
2024-02-13T20:41:18.942Z,6.24
2024-02-13T20:46:20.687Z,6.09
2024-02-13T20:51:22.334Z,6.06
2024-02-13T20:56:23.965Z,5.96
2024-02-13T21:01:28.368Z,6.00
2024-02-13T21:06:30.433Z,5.99
2024-02-13T21:11:35.666Z,5.85
2024-02-13T21:16:37.363Z,5.93
2024-02-13T21:22:01.100Z,5.79
2024-02-13T21:27:03.205Z,5.78
2024-02-13T21:32:05.926Z,5.97
2024-02-13T21:37:07.624Z,5.73
2024-02-13T21:42:11.026Z,5.66
2024-02-13T21:47:12.687Z,5.57
2024-02-13T21:52:14.337Z,5.53
2024-02-13T21:57:16.024Z,5.51
2024-02-13T22:02:17.744Z,5.63
2024-02-13T22:07:19.438Z,5.51
2024-02-13T22:12:21.149Z,5.45
2024-02-13T22:17:23.008Z,5.14
2024-02-13T22:22:24.760Z,5.29
2024-02-13T22:27:29.211Z,5.35
2024-02-13T22:32:32.870Z,5.19
2024-02-13T22:37:35.426Z,5.32
2024-02-13T22:42:37.076Z,5.44
2024-02-13T22:47:39.114Z,5.28
2024-02-13T22:52:40.923Z,5.29
2024-02-13T22:57:42.762Z,5.34
2024-02-13T23:02:45.371Z,5.24
2024-02-13T23:07:47.198Z,5.27
2024-02-13T23:12:48.784Z,5.19
2024-02-13T23:17:50.630Z,5.27
2024-02-13T23:22:52.340Z,5.17
2024-02-13T23:27:54.051Z,5.25
2024-02-13T23:32:56.155Z,5.09
2024-02-13T23:37:57.841Z,4.96
2024-02-13T23:43:00.278Z,5.22
2024-02-13T23:48:02.133Z,5.19
2024-02-13T23:53:04.102Z,5.05
2024-02-13T23:58:05.777Z,5.07
